Time;durP1;ratioP1;P1;durP2;ratioP2;P2;SDS_P1;SDS_P2;PMS_P1;PMS_P2;Temp;Humidity;BMP_temperature;BMP_pressure;BME280_temperature;BME280_humidity;BME280_pressure;Samples;Min_cycle;Max_cycle;Signal;HPM_P1;HPM_P2
2021/03/16 00:00:38;;;;;;;9.50;1.93;;;;;;;3.30;100.00;100847.47;4975671;28;20252;-72
2021/03/16 00:03:27;;;;;;;9.40;2.60;;;;;;;3.41;100.00;100852.94;4989202;28;20277;-72
2021/03/16 00:06:05;;;;;;;13.30;2.27;;;;;;;3.21;100.00;100859.53;4974701;28;20221;-72
2021/03/16 00:08:31;;;;;;;10.63;2.10;;;;;;;3.29;100.00;100853.88;4973694;28;20217;-72
2021/03/16 00:10:56;;;;;;;10.63;2.10;;;;;;;3.18;100.00;100860.75;4996695;28;20216;-72
2021/03/16 00:13:22;;;;;;;10.57;2.60;;;;;;;3.18;100.00;100860.75;4978339;28;20570;-74
2021/03/16 00:15:50;;;;;;;13.47;2.63;;;;;;;3.32;100.00;100877.59;4991758;28;20574;-72
2021/03/16 00:18:15;;;;;;;9.63;1.93;;;;;;;3.09;100.00;100869.31;4972834;28;20224;-73
2021/03/16 00:20:42;;;;;;;8.80;1.90;;;;;;;3.10;100.00;100879.84;4972818;28;20229;-72
2021/03/16 00:23:08;;;;;;;11.17;2.20;;;;;;;2.91;100.00;100871.09;4972630;28;20181;-72
2021/03/16 00:25:33;;;;;;;11.37;2.00;;;;;;;3.17;100.00;100874.44;4956361;28;20228;-72
2021/03/16 00:28:01;;;;;;;11.00;1.80;;;;;;;2.98;100.00;100867.34;4973564;28;20198;-72
2021/03/16 00:30:29;;;;;;;7.47;2.33;;;;;;;2.92;100.00;100876.25;4972686;28;20588;-72
2021/03/16 00:32:54;;;;;;;9.37;2.37;;;;;;;2.98;100.00;100872.69;4956589;28;20220;-72
2021/03/16 00:35:20;;;;;;;10.47;1.90;;;;;;;2.77;100.00;100885.66;4972092;28;20647;-72
2021/03/16 00:37:48;;;;;;;9.53;1.97;;;;;;;2.77;100.00;100883.78;4971482;28;20308;-73
2021/03/16 00:40:16;;;;;;;7.47;1.80;;;;;;;2.82;100.00;100888.50;4993077;28;20185;-71
2021/03/16 00:42:41;;;;;;;8.87;1.80;;;;;;;2.81;100.00;100887.69;5000502;28;20182;-73
2021/03/16 00:45:10;;;;;;;9.13;1.97;;;;;;;2.71;100.00;100890.03;4976526;28;20200;-72
2021/03/16 00:47:35;;;;;;;8.87;2.07;;;;;;;2.89;100.00;100898.13;4961876;28;20211;-72
2021/03/16 00:50:05;;;;;;;9.50;2.10;;;;;;;2.80;100.00;100896.78;4977725;28;20185;-72
2021/03/16 00:52:31;;;;;;;8.80;2.03;;;;;;;2.77;100.00;100902.56;4960873;28;20225;-74
2021/03/16 00:54:57;;;;;;;9.63;1.83;;;;;;;2.72;100.00;100910.44;4960975;28;20673;-72
2021/03/16 00:57:26;;;;;;;9.33;2.00;;;;;;;2.57;100.00;100910.97;4961320;28;20232;-73
2021/03/16 00:59:54;;;;;;;7.87;1.83;;;;;;;2.66;100.00;100920.41;4961450;28;20579;-73
2021/03/16 01:02:22;;;;;;;6.50;1.60;;;;;;;2.66;100.00;100925.75;5007533;28;20217;-72
2021/03/16 01:04:50;;;;;;;10.07;1.63;;;;;;;2.78;100.00;100925.69;4976508;28;20189;-73
2021/03/16 01:07:16;;;;;;;8.07;1.67;;;;;;;2.61;100.00;100923.69;4977704;28;20295;-72
2021/03/16 01:09:44;;;;;;;7.43;1.80;;;;;;;2.68;100.00;100938.72;4963299;28;20574;-72
2021/03/16 01:12:13;;;;;;;8.67;2.10;;;;;;;2.62;100.00;100929.88;4983598;28;20718;-72
2021/03/16 01:14:41;;;;;;;7.10;1.80;;;;;;;2.83;100.00;100928.50;4991742;28;20198;-73
2021/03/16 01:17:07;;;;;;;5.67;1.50;;;;;;;2.81;100.00;100930.59;4944097;28;20248;-72
2021/03/16 01:19:32;;;;;;;8.47;2.03;;;;;;;2.54;100.00;100927.44;4960021;28;20248;-73
2021/03/16 01:21:58;;;;;;;8.07;1.60;;;;;;;2.54;100.00;100948.91;4958890;28;20244;-72
2021/03/16 01:24:26;;;;;;;10.47;1.83;;;;;;;2.56;100.00;100942.28;4960307;28;20201;-72
2021/03/16 01:26:54;;;;;;;6.50;1.43;;;;;;;2.53;100.00;100942.72;4959573;28;20226;-73
2021/03/16 01:29:20;;;;;;;8.43;1.87;;;;;;;2.60;100.00;100943.53;4976161;28;20244;-73
2021/03/16 01:31:47;;;;;;;6.87;1.60;;;;;;;2.71;100.00;100943.66;4974467;28;20225;-73
2021/03/16 01:34:15;;;;;;;10.40;2.30;;;;;;;2.77;100.00;100945.47;4976288;28;20194;-74
2021/03/16 01:36:41;;;;;;;9.47;2.00;;;;;;;2.51;100.00;100949.31;4947081;28;20222;-74
2021/03/16 01:39:07;;;;;;;7.27;1.77;;;;;;;2.44;100.00;100951.22;4976111;28;20205;-74
2021/03/16 01:41:35;;;;;;;6.90;1.60;;;;;;;2.47;100.00;100948.09;4972365;28;20685;-72
2021/03/16 01:44:00;;;;;;;9.03;1.70;;;;;;;2.60;100.00;100950.72;4989247;28;20749;-73
2021/03/16 01:46:26;;;;;;;7.03;1.40;;;;;;;2.47;100.00;100948.09;4994833;28;20221;-72
2021/03/16 01:48:55;;;;;;;7.37;1.60;;;;;;;2.43;100.00;100952.25;4978756;28;20201;-74
2021/03/16 01:51:20;;;;;;;10.47;1.83;;;;;;;2.45;100.00;100950.16;5010483;28;20225;-74
2021/03/16 01:53:48;;;;;;;6.13;1.83;;;;;;;2.46;100.00;100944.59;5027160;28;20718;-73
2021/03/16 01:56:16;;;;;;;6.37;1.90;;;;;;;2.39;100.00;100951.03;4978748;28;20224;-73
2021/03/16 01:59:02;;;;;;;8.87;1.70;;;;;;;2.26;100.00;100947.59;4985500;28;20220;-73
2021/03/16 02:01:47;;;;;;;5.03;1.50;;;;;;;2.36;100.00;100951.44;5011945;28;20236;-73
2021/03/16 02:04:31;;;;;;;6.77;1.63;;;;;;;2.43;100.00;100949.56;4984797;28;20232;-73
2021/03/16 02:07:23;;;;;;;9.53;1.90;;;;;;;2.38;100.00;100949.38;4983978;28;20278;-74
2021/03/16 02:10:14;;;;;;;10.30;1.73;;;;;;;2.54;100.00;100955.06;4997823;28;20705;-75
2021/03/16 02:13:04;;;;;;;6.80;1.50;;;;;;;2.19;100.00;100955.63;4991094;28;20679;-73
2021/03/16 02:15:50;;;;;;;11.53;1.63;;;;;;;2.15;100.00;100959.78;4997595;28;20635;-73
2021/03/16 02:18:37;;;;;;;10.43;1.83;;;;;;;2.18;100.00;100956.69;4970293;28;20295;-73
2021/03/16 02:21:27;;;;;;;9.20;1.90;;;;;;;2.27;100.00;100954.56;4983592;28;20609;-72
2021/03/16 02:24:24;;;;;;;11.60;1.87;;;;;;;2.34;100.00;100958.88;4999370;28;20690;-72
2021/03/16 02:27:11;;;;;;;5.87;1.50;;;;;;;2.36;100.00;100963.00;4971538;28;20234;-73
2021/03/16 02:29:57;;;;;;;5.10;1.50;;;;;;;2.36;100.00;100962.16;4997584;28;20255;-73
2021/03/16 02:32:42;;;;;;;7.73;1.87;;;;;;;2.34;100.00;100975.78;4968940;28;20246;-73
2021/03/16 02:35:28;;;;;;;7.03;1.60;;;;;;;2.49;100.00;100968.31;4996790;28;20277;-72
2021/03/16 02:38:15;;;;;;;8.13;1.60;;;;;;;2.38;100.00;100984.19;4984655;28;20286;-73
2021/03/16 02:41:04;;;;;;;10.43;2.00;;;;;;;2.39;100.00;100988.53;5004423;28;20221;-72
2021/03/16 02:43:48;;;;;;;8.03;1.70;;;;;;;2.41;100.00;100986.47;5003692;28;20259;-73
2021/03/16 02:46:32;;;;;;;6.57;1.60;;;;;;;2.40;100.00;100984.81;4982827;28;20859;-73
2021/03/16 02:49:18;;;;;;;4.03;1.40;;;;;;;2.39;100.00;100988.53;4996646;28;20240;-73
2021/03/16 02:52:03;;;;;;;9.17;1.60;;;;;;;2.36;100.00;100986.28;4995859;28;20286;-72
2021/03/16 02:54:49;;;;;;;7.87;2.40;;;;;;;2.31;100.00;100991.47;4983489;28;20192;-72
2021/03/16 02:57:33;;;;;;;8.77;1.90;;;;;;;2.23;100.00;100999.72;4982936;28;20224;-73
2021/03/16 03:00:17;;;;;;;14.90;1.97;;;;;;;2.28;100.00;100991.88;4982140;28;20234;-73
2021/03/16 03:03:06;;;;;;;9.67;1.80;;;;;;;2.46;100.00;101005.44;4982017;28;20224;-73
2021/03/16 03:05:54;;;;;;;9.27;1.77;;;;;;;2.55;100.00;101004.16;4969032;28;20291;-72
2021/03/16 03:08:38;;;;;;;11.10;2.20;;;;;;;2.48;100.00;101001.50;4977480;28;20268;-74
2021/03/16 03:11:23;;;;;;;13.03;2.80;;;;;;;2.48;100.00;101000.69;4999303;28;20268;-73
2021/03/16 03:14:08;;;;;;;9.03;2.40;;;;;;;2.68;100.00;101011.09;4977776;28;20219;-74
2021/03/16 03:16:55;;;;;;;11.43;3.40;;;;;;;2.83;100.00;101014.31;4981696;28;20744;-73
2021/03/16 03:19:41;;;;;;;11.47;3.33;;;;;;;2.90;100.00;101014.31;4983453;28;20581;-73
2021/03/16 03:22:36;;;;;;;11.87;3.27;;;;;;;2.87;100.00;101018.22;4997272;28;20224;-73
2021/03/16 03:25:24;;;;;;;13.17;3.60;;;;;;;2.98;100.00;101022.91;5009513;28;20263;-73
2021/03/16 03:28:24;;;;;;;15.47;3.77;;;;;;;3.02;100.00;101017.94;4982711;28;21025;-73
2021/03/16 03:31:10;;;;;;;16.33;4.87;;;;;;;3.01;100.00;101021.69;4981890;28;20236;-73
2021/03/16 03:33:54;;;;;;;14.80;3.87;;;;;;;3.38;100.00;101024.31;4981065;28;20251;-73
2021/03/16 03:36:39;;;;;;;14.47;4.00;;;;;;;3.38;100.00;101029.69;5009270;28;20611;-73
2021/03/16 03:39:25;;;;;;;13.07;4.67;;;;;;;3.32;100.00;101033.25;4982712;28;20386;-73
2021/03/16 03:42:10;;;;;;;15.00;4.70;;;;;;;3.26;100.00;101032.25;4983208;28;20213;-73
2021/03/16 03:44:54;;;;;;;14.00;4.23;;;;;;;3.30;100.00;101038.00;4976846;28;20618;-73
2021/03/16 03:47:39;;;;;;;12.17;4.00;;;;;;;3.51;100.00;101036.59;4976193;28;20801;-73
2021/03/16 03:50:23;;;;;;;16.27;4.60;;;;;;;3.30;100.00;101043.38;4962429;28;20193;-73
2021/03/16 03:53:08;;;;;;;12.77;4.23;;;;;;;3.48;100.00;101041.59;4975341;28;20225;-73
2021/03/16 03:55:53;;;;;;;10.90;4.43;;;;;;;3.65;100.00;101048.91;4976029;28;20801;-73
2021/03/16 03:58:38;;;;;;;15.40;4.50;;;;;;;3.59;100.00;101049.78;4976478;28;20666;-73
2021/03/16 04:01:25;;;;;;;13.63;4.73;;;;;;;3.38;100.00;101045.78;4975815;28;20224;-73
2021/03/16 04:04:13;;;;;;;17.20;4.30;;;;;;;3.42;100.00;101057.75;4976349;28;20197;-73
2021/03/16 04:06:58;;;;;;;17.53;5.43;;;;;;;3.49;100.00;101060.16;4984251;28;20505;-72
2021/03/16 04:09:44;;;;;;;14.60;4.70;;;;;;;3.39;100.00;101058.16;4985003;28;20772;-74
2021/03/16 04:12:29;;;;;;;14.00;4.43;;;;;;;3.61;100.00;101057.63;4974153;28;20342;-73
2021/03/16 04:15:16;;;;;;;13.53;4.20;;;;;;;3.44;100.00;101073.44;4962302;28;20208;-73
2021/03/16 04:18:01;;;;;;;19.73;4.60;;;;;;;3.51;100.00;101068.81;4962670;28;20276;-74
2021/03/16 04:20:45;;;;;;;17.50;4.37;;;;;;;3.55;100.00;101063.84;4987148;28;20645;-73
2021/03/16 04:23:29;;;;;;;14.90;4.63;;;;;;;3.64;100.00;101063.34;4967569;28;20211;-73
2021/03/16 04:26:15;;;;;;;13.97;4.40;;;;;;;3.54;100.00;101063.03;4981254;28;20235;-73
2021/03/16 04:29:00;;;;;;;15.33;4.80;;;;;;;3.74;100.00;101060.22;4981597;28;20220;-73
2021/03/16 04:31:43;;;;;;;16.37;4.40;;;;;;;3.56;100.00;101069.00;4994262;28;20275;-73
2021/03/16 04:34:28;;;;;;;12.23;4.20;;;;;;;3.52;100.00;101065.09;4981417;28;20282;-73
2021/03/16 04:37:13;;;;;;;14.63;5.10;;;;;;;3.53;100.00;101066.72;4981390;28;20282;-72
2021/03/16 04:39:57;;;;;;;11.10;4.17;;;;;;;3.46;100.00;101076.72;4999475;28;20191;-74
2021/03/16 04:42:41;;;;;;;17.63;4.77;;;;;;;3.47;100.00;101083.72;4991758;28;20207;-74
2021/03/16 04:45:30;;;;;;;14.30;4.53;;;;;;;3.58;100.00;101079.53;5015425;28;20266;-72
2021/03/16 04:48:15;;;;;;;13.10;4.47;;;;;;;3.64;100.00;101082.16;5004205;28;20227;-73
2021/03/16 04:50:58;;;;;;;15.53;4.73;;;;;;;3.52;100.00;101083.09;5000322;28;20230;-73
2021/03/16 04:53:43;;;;;;;17.80;5.50;;;;;;;3.64;100.00;101098.25;4984379;28;20220;-73
2021/03/16 04:56:27;;;;;;;11.70;4.17;;;;;;;3.80;100.00;101094.25;5127937;23;20367;-73
2021/03/16 04:59:11;;;;;;;18.43;4.23;;;;;;;3.61;100.00;101096.03;4982881;28;20296;-72
2021/03/16 05:01:55;;;;;;;14.83;5.07;;;;;;;3.71;100.00;101096.34;4963883;28;20232;-73
2021/03/16 05:04:39;;;;;;;17.60;5.20;;;;;;;3.63;100.00;101109.25;4978995;28;20212;-72
2021/03/16 05:07:26;;;;;;;19.70;4.80;;;;;;;3.76;100.00;101112.66;4993177;28;20764;-73
2021/03/16 05:10:12;;;;;;;14.30;4.30;;;;;;;3.59;100.00;101119.59;4984184;28;20701;-73
2021/03/16 05:12:57;;;;;;;14.70;4.17;;;;;;;3.82;100.00;101125.22;4944962;28;20757;-72
2021/03/16 05:15:41;;;;;;;16.67;3.87;;;;;;;3.76;100.00;101119.91;4979097;28;20751;-73
2021/03/16 05:18:26;;;;;;;17.37;4.30;;;;;;;3.82;100.00;101125.22;4965851;28;20620;-71
2021/03/16 05:21:10;;;;;;;15.67;4.13;;;;;;;3.60;100.00;101131.97;4993174;28;20236;-72
2021/03/16 05:23:56;;;;;;;19.63;4.47;;;;;;;3.90;100.00;101136.53;4964514;28;20200;-70
2021/03/16 05:26:41;;;;;;;11.67;3.27;;;;;;;3.69;100.00;101141.41;4978630;28;20605;-70
2021/03/16 05:29:27;;;;;;;18.23;5.23;;;;;;;3.78;100.00;101140.13;4984636;28;20223;-72
2021/03/16 05:32:12;;;;;;;13.23;3.83;;;;;;;3.75;100.00;101143.22;4980257;28;20247;-70
2021/03/16 05:34:56;;;;;;;14.10;3.60;;;;;;;3.99;100.00;101147.81;4992817;28;20184;-72
2021/03/16 05:37:43;;;;;;;19.97;4.67;;;;;;;4.00;100.00;101138.72;4992407;28;20231;-72
2021/03/16 05:40:32;;;;;;;20.17;4.17;;;;;;;4.08;100.00;101146.50;4998609;28;20228;-72
2021/03/16 05:43:17;;;;;;;19.13;4.20;;;;;;;4.30;100.00;101152.13;4984654;28;20706;-71
2021/03/16 05:46:01;;;;;;;17.00;3.93;;;;;;;3.81;100.00;101161.19;4997985;28;20240;-73
2021/03/16 05:48:48;;;;;;;14.63;3.40;;;;;;;4.13;100.00;101154.75;4984389;28;20231;-72
2021/03/16 05:51:33;;;;;;;17.77;4.13;;;;;;;4.44;100.00;101155.50;4983847;28;20275;-72
2021/03/16 05:54:18;;;;;;;7.77;2.87;;;;;;;4.33;100.00;101148.97;4983222;28;20623;-72
2021/03/16 05:57:04;;;;;;;18.30;4.23;;;;;;;4.44;100.00;101148.25;4982997;28;20271;-71
2021/03/16 05:59:48;;;;;;;14.47;3.83;;;;;;;4.42;100.00;101161.09;4971399;28;20211;-72
2021/03/16 06:02:35;;;;;;;15.03;3.00;;;;;;;4.61;100.00;101152.03;4982699;28;20224;-72
2021/03/16 06:05:19;;;;;;;13.83;3.37;;;;;;;4.74;100.00;101157.28;4980804;28;20212;-72
2021/03/16 06:08:04;;;;;;;10.17;2.50;;;;;;;4.67;100.00;101160.03;4986973;28;20277;-73
2021/03/16 06:10:48;;;;;;;14.13;3.07;;;;;;;4.61;100.00;101154.72;4983100;28;20244;-73
2021/03/16 06:13:33;;;;;;;16.20;3.17;;;;;;;4.50;100.00;101158.13;4964159;28;20740;-73
2021/03/16 06:16:17;;;;;;;11.17;2.80;;;;;;;4.60;100.00;101155.78;5000704;28;20695;-73
2021/03/16 06:19:03;;;;;;;18.07;3.40;;;;;;;4.52;100.00;101156.03;4964358;28;20216;-72
2021/03/16 06:22:00;;;;;;;12.60;2.70;;;;;;;4.79;100.00;101165.50;4963293;28;20280;-74
2021/03/16 06:24:45;;;;;;;13.47;3.57;;;;;;;4.86;100.00;101166.28;4978276;28;20632;-71
2021/03/16 06:27:32;;;;;;;9.37;2.73;;;;;;;4.96;100.00;101169.25;4991328;28;20288;-73
2021/03/16 06:30:24;;;;;;;12.63;2.70;;;;;;;4.96;100.00;101170.06;4962607;28;20272;-74
2021/03/16 06:33:24;;;;;;;10.33;2.87;;;;;;;5.09;100.00;101173.47;4966569;28;20215;-73
2021/03/16 06:36:11;;;;;;;12.10;2.60;;;;;;;5.08;100.00;101173.69;5016388;28;20282;-74
2021/03/16 06:38:55;;;;;;;12.20;3.10;;;;;;;5.20;100.00;101170.03;5011678;28;20697;-73
2021/03/16 06:41:40;;;;;;;8.83;2.40;;;;;;;5.47;100.00;101171.31;4992778;28;20925;-72
2021/03/16 06:44:27;;;;;;;9.70;2.33;;;;;;;5.20;100.00;101178.09;4997397;28;20200;-73
2021/03/16 06:47:13;;;;;;;11.60;2.30;;;;;;;5.16;100.00;101179.56;4983199;28;20236;-73
2021/03/16 06:49:57;;;;;;;11.93;2.80;;;;;;;5.32;100.00;101178.97;4997345;28;20250;-73
2021/03/16 06:52:50;;;;;;;14.87;2.40;;;;;;;5.55;100.00;101179.09;4995512;28;20323;-73
2021/03/16 06:55:34;;;;;;;10.67;2.57;;;;;;;5.46;100.00;101188.56;4996495;28;20299;-71
2021/03/16 06:58:22;;;;;;;12.37;2.20;;;;;;;5.56;100.00;101186.13;4993459;28;20227;-71
2021/03/16 07:01:16;;;;;;;14.43;3.07;;;;;;;5.59;100.00;101188.38;5001905;28;20282;-73
2021/03/16 07:04:14;;;;;;;8.77;2.37;;;;;;;5.68;100.00;101182.44;4989526;28;20258;-72
2021/03/16 07:06:58;;;;;;;7.23;1.90;;;;;;;5.59;100.00;101183.00;4966042;28;20765;-72
2021/03/16 07:09:42;;;;;;;12.77;2.07;;;;;;;6.00;100.00;101192.78;4966145;28;20619;-72
2021/03/16 07:12:33;;;;;;;11.07;2.57;;;;;;;6.09;100.00;101180.63;4962813;28;20658;-71
2021/03/16 07:15:17;;;;;;;9.17;2.20;;;;;;;6.02;100.00;101184.47;4964883;28;20248;-72
2021/03/16 07:18:01;;;;;;;11.93;2.83;;;;;;;5.93;100.00;101186.66;4963049;28;20252;-71
2021/03/16 07:20:45;;;;;;;12.90;2.30;;;;;;;6.17;100.00;101189.22;4962881;28;20227;-72
2021/03/16 07:23:30;;;;;;;7.23;1.97;;;;;;;6.26;100.00;101192.38;4976460;28;20232;-72
2021/03/16 07:26:15;;;;;;;9.00;1.97;;;;;;;6.28;100.00;101191.13;4976417;28;20834;-73
2021/03/16 07:28:59;;;;;;;9.13;2.67;;;;;;;6.61;100.00;101196.78;4964060;28;20340;-73
2021/03/16 07:31:45;;;;;;;14.87;2.10;;;;;;;6.61;100.00;101192.22;4948288;28;20232;-72
2021/03/16 07:34:29;;;;;;;9.20;1.83;;;;;;;6.26;100.00;101209.41;4964172;28;20197;-71
2021/03/16 07:37:14;;;;;;;9.67;2.23;;;;;;;6.50;100.00;101212.97;4949303;28;20240;-71
2021/03/16 07:40:04;;;;;;;6.10;1.70;;;;;;;6.23;100.00;101203.66;4954795;28;20278;-72
2021/03/16 07:42:48;;;;;;;11.37;2.20;;;;;;;6.31;100.00;101211.41;4977840;28;20271;-72
2021/03/16 07:45:33;;;;;;;8.57;1.80;;;;;;;6.29;100.00;101219.72;4962385;28;20299;-71
2021/03/16 07:48:19;;;;;;;7.07;1.80;;;;;;;6.06;100.00;101218.00;4989926;28;20220;-72
2021/03/16 07:51:14;;;;;;;10.03;2.10;;;;;;;6.54;100.00;101223.88;4976524;28;20272;-72
2021/03/16 07:54:03;;;;;;;9.50;1.93;;;;;;;6.17;100.00;101226.13;4989534;28;20228;-72
2021/03/16 07:56:56;;;;;;;9.67;2.03;;;;;;;6.54;100.00;101221.19;4976247;28;20231;-72
2021/03/16 07:59:40;;;;;;;11.70;2.17;;;;;;;6.33;100.00;101220.91;4976760;28;20219;-73
2021/03/16 08:02:31;;;;;;;7.50;2.00;;;;;;;6.51;100.00;101237.81;4960971;28;20232;-73
2021/03/16 08:05:18;;;;;;;6.00;1.80;;;;;;;6.80;99.72;101233.44;4975997;28;20201;-72
2021/03/16 08:08:19;;;;;;;5.30;1.40;;;;;;;6.38;100.00;101239.91;4969383;28;20242;-72
2021/03/16 08:11:11;;;;;;;10.23;1.60;;;;;;;6.57;100.00;101233.38;4984937;28;20255;-72
2021/03/16 08:14:00;;;;;;;5.40;1.77;;;;;;;6.55;99.36;101233.59;4982230;28;20215;-72
2021/03/16 08:16:48;;;;;;;8.07;1.47;;;;;;;6.38;100.00;101244.50;4981961;28;20259;-72
2021/03/16 08:19:41;;;;;;;8.80;2.47;;;;;;;6.42;100.00;101251.88;4997044;28;20219;-72
2021/03/16 08:22:26;;;;;;;9.03;1.80;;;;;;;6.69;100.00;101243.16;4980345;28;20279;-73
2021/03/16 08:25:13;;;;;;;8.50;1.73;;;;;;;6.72;98.74;101249.94;4968006;28;20204;-72
2021/03/16 08:28:06;;;;;;;5.53;1.60;;;;;;;6.75;97.71;101242.22;4982511;28;20220;-72
2021/03/16 08:30:50;;;;;;;6.13;1.80;;;;;;;6.72;100.00;101239.16;4982988;28;20295;-72
2021/03/16 08:33:34;;;;;;;8.30;1.83;;;;;;;6.83;94.41;101250.00;4967414;28;20251;-72
2021/03/16 08:36:19;;;;;;;9.87;1.53;;;;;;;6.59;94.32;101261.81;4981266;28;20756;-72
2021/03/16 08:39:05;;;;;;;8.57;1.87;;;;;;;6.74;95.27;101261.34;4995025;28;20226;-73
2021/03/16 08:41:56;;;;;;;7.47;1.90;;;;;;;6.66;94.59;101265.19;4967048;28;20352;-72
2021/03/16 08:44:40;;;;;;;5.83;1.60;;;;;;;6.80;93.65;101266.63;4996008;28;20200;-72
2021/03/16 08:47:25;;;;;;;8.07;1.80;;;;;;;6.47;96.75;101272.81;4994673;28;20282;-73
2021/03/16 08:50:13;;;;;;;6.63;1.60;;;;;;;6.69;94.76;101269.31;4967817;28;20196;-71
2021/03/16 08:52:58;;;;;;;7.13;1.70;;;;;;;6.74;96.26;101261.34;5009413;28;20220;-72
2021/03/16 08:55:47;;;;;;;7.80;1.47;;;;;;;6.95;94.15;101253.50;5009156;28;20283;-72
2021/03/16 08:58:31;;;;;;;7.90;1.40;;;;;;;7.24;92.81;101252.56;4968473;28;20630;-72
2021/03/16 09:01:28;;;;;;;9.63;1.60;;;;;;;7.39;92.03;101257.22;4977294;28;20232;-72
2021/03/16 09:04:12;;;;;;;7.43;1.40;;;;;;;7.36;90.35;101260.44;4989641;28;20216;-73
2021/03/16 09:06:56;;;;;;;10.43;1.67;;;;;;;7.22;90.67;101255.50;4968310;28;20778;-73
2021/03/16 09:09:40;;;;;;;5.53;1.20;;;;;;;7.41;92.37;101260.50;4983732;28;20227;-72
2021/03/16 09:12:25;;;;;;;6.03;1.13;;;;;;;7.15;90.91;101259.38;4968776;28;20275;-72
2021/03/16 09:15:13;;;;;;;6.50;1.60;;;;;;;7.19;90.14;101255.16;4982359;28;20192;-72
2021/03/16 09:18:05;;;;;;;4.53;1.20;;;;;;;7.39;89.62;101256.41;4995727;28;20243;-73
2021/03/16 09:20:51;;;;;;;7.90;1.70;;;;;;;7.15;91.86;101270.19;4982705;28;20732;-73
2021/03/16 09:23:36;;;;;;;6.20;1.80;;;;;;;6.97;91.75;101270.28;4981919;28;20196;-73
2021/03/16 09:26:26;;;;;;;5.50;1.43;;;;;;;7.08;92.23;101269.47;4981115;28;20336;-72
2021/03/16 09:29:14;;;;;;;6.10;1.50;;;;;;;7.17;91.38;101262.66;4984495;28;20262;-72
2021/03/16 09:32:02;;;;;;;4.27;1.50;;;;;;;7.22;92.41;101265.50;4968958;28;20765;-73
2021/03/16 09:34:47;;;;;;;10.90;2.27;;;;;;;7.36;90.29;101263.13;4966014;28;20608;-72
2021/03/16 09:37:43;;;;;;;6.07;1.70;;;;;;;7.47;87.83;101273.09;4998119;28;21021;-72
2021/03/16 09:40:43;;;;;;;8.40;1.70;;;;;;;7.60;87.75;101270.16;4973258;28;20224;-73
2021/03/16 09:43:38;;;;;;;5.77;1.50;;;;;;;7.42;87.65;101275.69;4996507;28;20604;-72
2021/03/16 09:46:10;;;;;;;10.47;1.67;;;;;;;7.31;86.56;101276.50;4984039;28;20220;-72
2021/03/16 09:48:48;;;;;;;6.00;1.30;;;;;;;7.31;87.38;101267.59;4979543;28;20675;-73
2021/03/16 09:51:18;;;;;;;7.07;1.53;;;;;;;7.38;85.87;101277.22;4979535;28;20251;-73
2021/03/16 09:53:48;;;;;;;8.37;1.27;;;;;;;7.45;86.83;101266.28;4962400;28;20267;-72
2021/03/16 09:56:13;;;;;;;6.73;1.70;;;;;;;7.76;87.89;101274.78;4978365;28;20248;-72
2021/03/16 09:58:48;;;;;;;7.03;1.40;;;;;;;7.52;87.48;101273.19;4979828;28;20216;-74
2021/03/16 10:01:14;;;;;;;7.13;1.70;;;;;;;7.78;86.43;101275.38;4962171;28;20307;-74
2021/03/16 10:03:40;;;;;;;10.57;1.90;;;;;;;7.80;86.52;101271.38;4978328;28;20185;-72
2021/03/16 10:06:07;;;;;;;9.67;2.17;;;;;;;7.89;88.37;101271.81;4982332;28;20273;-73
2021/03/16 10:08:33;;;;;;;7.40;1.47;;;;;;;8.21;86.01;101274.69;4962484;28;20448;-72
2021/03/16 10:10:58;;;;;;;6.03;1.40;;;;;;;7.61;87.36;101281.78;4985759;28;20231;-73
2021/03/16 10:13:39;;;;;;;7.93;1.50;;;;;;;7.91;85.80;101288.63;4957994;28;20205;-72
2021/03/16 10:16:08;;;;;;;5.80;1.23;;;;;;;7.76;86.28;101288.31;4959239;28;20336;-72
2021/03/16 10:18:41;;;;;;;5.60;1.57;;;;;;;7.78;89.13;101294.31;4944522;28;20209;-73
2021/03/16 10:21:06;;;;;;;8.03;2.10;;;;;;;7.61;88.86;101293.41;4975568;28;20232;-74
2021/03/16 10:23:32;;;;;;;9.90;1.83;;;;;;;7.78;89.79;101295.16;4990821;28;20587;-72
2021/03/16 10:26:00;;;;;;;7.73;1.73;;;;;;;8.00;86.77;101298.00;4958753;28;20381;-72
2021/03/16 10:28:39;;;;;;;7.87;1.73;;;;;;;7.98;88.45;101295.53;4974975;28;20205;-72
2021/03/16 10:31:34;;;;;;;8.37;1.57;;;;;;;7.84;87.79;101298.78;4959187;28;20268;-73
2021/03/16 10:33:59;;;;;;;7.70;1.63;;;;;;;7.59;91.34;101294.69;4972679;28;20605;-73
2021/03/16 10:36:34;;;;;;;9.00;1.70;;;;;;;7.73;90.01;101313.16;4994629;28;20282;-74
2021/03/16 10:39:05;;;;;;;8.83;1.90;;;;;;;8.05;90.16;101307.88;4978978;28;20251;-72
2021/03/16 10:41:31;;;;;;;9.03;2.00;;;;;;;8.11;88.57;101306.97;5018817;28;20220;-72
2021/03/16 10:43:56;;;;;;;11.70;2.10;;;;;;;8.28;87.53;101307.84;4958072;28;20204;-72
2021/03/16 10:46:22;;;;;;;8.43;2.00;;;;;;;7.79;88.82;101306.78;4973775;28;20225;-73
2021/03/16 10:48:48;;;;;;;9.87;2.20;;;;;;;7.99;88.39;101309.91;4958947;28;20213;-74
2021/03/16 10:51:13;;;;;;;13.63;2.27;;;;;;;8.15;86.54;101310.81;4974327;28;20786;-71
2021/03/16 10:53:39;;;;;;;9.10;1.77;;;;;;;8.03;86.98;101315.41;4973640;28;20213;-72
2021/03/16 10:56:05;;;;;;;7.50;1.90;;;;;;;8.02;87.36;101307.50;4990292;28;20221;-72
2021/03/16 10:58:33;;;;;;;12.37;2.33;;;;;;;8.34;83.80;101312.28;4994310;28;20205;-72
2021/03/16 11:01:01;;;;;;;6.57;1.80;;;;;;;8.08;84.71;101312.81;4961316;28;20219;-71
2021/03/16 11:03:30;;;;;;;9.70;2.17;;;;;;;8.09;84.28;101309.09;5010140;28;20178;-72
2021/03/16 11:05:57;;;;;;;7.83;1.90;;;;;;;8.22;85.87;101307.97;4993158;28;20315;-72
2021/03/16 11:08:23;;;;;;;9.57;2.90;;;;;;;7.90;85.14;101320.25;4978063;28;20215;-73
2021/03/16 11:10:51;;;;;;;12.80;2.63;;;;;;;7.92;86.48;101311.91;4997646;28;20210;-71
2021/03/16 11:13:16;;;;;;;13.57;2.33;;;;;;;8.33;85.96;101315.22;4981534;28;20211;-72
2021/03/16 11:15:42;;;;;;;9.80;2.70;;;;;;;8.52;85.28;101312.91;4977273;28;20229;-73
2021/03/16 11:18:07;;;;;;;11.20;2.23;;;;;;;8.45;83.23;101304.09;4978145;28;20201;-72
2021/03/16 11:20:38;;;;;;;9.80;2.10;;;;;;;8.34;82.09;101306.03;4992970;28;20220;-73
2021/03/16 11:23:05;;;;;;;9.93;1.93;;;;;;;8.34;83.48;101312.28;4993508;28;20264;-72
2021/03/16 11:25:31;;;;;;;8.97;2.20;;;;;;;8.00;84.50;101319.66;4961366;28;20709;-72
2021/03/16 11:27:56;;;;;;;11.77;2.00;;;;;;;8.03;85.43;101322.69;4962520;28;20208;-73
2021/03/16 11:30:22;;;;;;;10.90;1.83;;;;;;;8.05;85.53;101321.38;4961414;28;20192;-72
2021/03/16 11:32:47;;;;;;;10.73;2.10;;;;;;;8.21;84.11;101315.25;4961711;28;20213;-73
2021/03/16 11:35:34;;;;;;;7.93;1.70;;;;;;;8.22;82.06;101314.22;4996144;28;20271;-72
2021/03/16 11:38:18;;;;;;;10.37;1.90;;;;;;;7.69;83.84;101317.34;4982819;28;20271;-71
2021/03/16 11:41:02;;;;;;;12.33;2.60;;;;;;;7.74;85.47;101314.75;5002490;28;20282;-72
2021/03/16 11:43:46;;;;;;;8.60;1.93;;;;;;;8.30;84.27;101321.94;4962170;28;20244;-72
2021/03/16 11:46:30;;;;;;;12.23;2.37;;;;;;;8.40;82.76;101318.59;4989639;28;20240;-72
2021/03/16 11:49:17;;;;;;;12.17;3.50;;;;;;;8.24;81.89;101317.50;4990393;28;20237;-72
2021/03/16 11:52:01;;;;;;;9.43;2.03;;;;;;;8.17;77.42;101316.00;4989105;28;20316;-72
2021/03/16 11:54:45;;;;;;;10.50;2.00;;;;;;;8.69;76.02;101304.81;5004325;28;20232;-72
2021/03/16 11:57:29;;;;;;;10.47;2.50;;;;;;;9.45;74.26;101306.59;4955753;28;20233;-72
2021/03/16 12:00:14;;;;;;;7.80;1.90;;;;;;;9.38;70.99;101301.34;4971474;28;20201;-71
2021/03/16 12:02:58;;;;;;;8.43;2.20;;;;;;;8.75;71.62;101303.81;4955808;28;20228;-71
2021/03/16 12:05:42;;;;;;;8.47;2.07;;;;;;;8.16;74.33;101304.31;4983719;28;20248;-71
2021/03/16 12:08:26;;;;;;;7.20;1.73;;;;;;;8.17;75.56;101300.56;4956917;28;20665;-71
2021/03/16 12:11:10;;;;;;;10.63;1.90;;;;;;;8.25;76.35;101307.50;4983696;28;20302;-71
2021/03/16 12:13:54;;;;;;;12.60;1.93;;;;;;;8.26;76.35;101301.84;4983570;28;20256;-71
2021/03/16 12:16:38;;;;;;;8.57;1.90;;;;;;;8.66;76.20;101299.88;4955762;28;20237;-71
2021/03/16 12:19:24;;;;;;;7.57;1.63;;;;;;;8.65;75.25;101298.25;4970383;28;20224;-71
2021/03/16 12:22:08;;;;;;;6.07;1.60;;;;;;;8.72;74.11;101297.00;4955658;28;20288;-70
2021/03/16 12:24:52;;;;;;;6.63;2.00;;;;;;;8.40;76.36;101300.47;4970503;28;20241;-72